createdAt,value
2023-05-08T00:01:59.803Z,76.77
2023-05-08T00:07:01.712Z,76.99
2023-05-08T00:12:03.642Z,77.18
2023-05-08T00:17:05.741Z,77.34
2023-05-08T00:22:08.059Z,77.41
2023-05-08T00:27:09.853Z,77.66
2023-05-08T00:32:12.082Z,78.08
2023-05-08T00:37:32.701Z,78.40
2023-05-08T00:42:34.621Z,79.15
2023-05-08T00:47:36.748Z,78.93
2023-05-08T00:52:39.350Z,78.28
2023-05-08T00:57:41.300Z,77.47
2023-05-08T01:02:43.773Z,76.28
2023-05-08T01:07:45.625Z,75.46
2023-05-08T01:13:07.686Z,74.67
2023-05-08T01:18:42.741Z,74.19
2023-05-08T01:24:36.695Z,73.74
2023-05-08T01:30:11.536Z,73.22
2023-05-08T01:35:41.220Z,73.30
2023-05-08T01:41:08.998Z,72.67
2023-05-08T01:46:16.918Z,72.50
2023-05-08T01:51:23.009Z,72.32
2023-05-08T01:56:29.130Z,72.22
2023-05-08T02:01:33.415Z,71.75
2023-05-08T02:06:37.408Z,70.85
2023-05-08T02:11:46.096Z,71.25
2023-05-08T02:16:54.954Z,71.51
2023-05-08T02:22:00.604Z,70.87
2023-05-08T02:27:02.812Z,71.39
2023-05-08T02:32:06.697Z,71.54
2023-05-08T02:37:10.474Z,71.34
2023-05-08T02:42:12.827Z,71.65
2023-05-08T02:47:29.756Z,70.99
2023-05-08T02:53:03.384Z,71.11
2023-05-08T02:58:08.293Z,71.44
2023-05-08T03:03:21.159Z,71.43
2023-05-08T03:08:28.349Z,71.94
2023-05-08T03:13:34.563Z,71.94
2023-05-08T03:18:54.927Z,71.29
2023-05-08T03:24:00.738Z,71.26
2023-05-08T03:29:03.015Z,71.36
2023-05-08T03:34:09.707Z,71.11
2023-05-08T03:39:12.216Z,71.41
2023-05-08T03:44:16.561Z,71.12
2023-05-08T03:49:20.044Z,71.05
2023-05-08T03:54:25.413Z,70.85
2023-05-08T03:59:33.346Z,70.02
2023-05-08T04:04:40.892Z,69.25
2023-05-08T04:09:58.358Z,69.69
2023-05-08T04:15:09.286Z,69.78
2023-05-08T04:20:17.152Z,69.54
2023-05-08T04:25:21.379Z,69.44
2023-05-08T04:30:24.668Z,68.99
2023-05-08T04:35:26.791Z,68.80
2023-05-08T04:40:29.489Z,68.43
2023-05-08T04:45:31.750Z,67.98
2023-05-08T04:50:33.663Z,66.96
2023-05-08T04:55:35.590Z,66.28
2023-05-08T05:00:37.525Z,65.63
2023-05-08T05:05:39.534Z,65.20
2023-05-08T05:10:41.558Z,64.11
2023-05-08T05:15:43.536Z,63.08
2023-05-08T05:20:46.311Z,63.42
2023-05-08T05:25:48.579Z,63.62
2023-05-08T05:30:50.344Z,62.95
2023-05-08T05:35:52.434Z,63.14
2023-05-08T05:40:54.349Z,61.84
2023-05-08T05:45:56.284Z,61.92
2023-05-08T05:50:59.578Z,61.80
2023-05-08T05:56:01.343Z,60.94
2023-05-08T06:01:04.680Z,61.87
2023-05-08T06:06:06.931Z,61.57
2023-05-08T06:11:08.825Z,61.04
2023-05-08T06:16:10.637Z,61.00
2023-05-08T06:21:12.360Z,60.60
2023-05-08T06:26:29.896Z,60.99
2023-05-08T06:31:34.643Z,60.52
2023-05-08T06:36:36.676Z,60.89
2023-05-08T06:41:38.477Z,60.60
2023-05-08T06:46:40.663Z,60.94
2023-05-08T06:51:42.546Z,59.66
2023-05-08T06:56:44.438Z,58.56
2023-05-08T07:01:46.332Z,58.73
2023-05-08T07:06:48.161Z,59.30
2023-05-08T07:11:49.880Z,59.74
2023-05-08T07:16:51.583Z,59.47
2023-05-08T07:21:53.314Z,60.02
2023-05-08T07:26:55.291Z,59.77
2023-05-08T07:31:57.122Z,58.96
2023-05-08T07:36:58.994Z,58.78
2023-05-08T07:42:01.605Z,58.09
2023-05-08T07:47:03.853Z,56.76
2023-05-08T07:52:05.832Z,55.97
2023-05-08T07:57:07.587Z,55.66
2023-05-08T08:02:09.548Z,55.78
2023-05-08T08:07:11.438Z,55.58
2023-05-08T08:12:13.122Z,54.87
2023-05-08T08:17:14.862Z,54.33
2023-05-08T08:22:16.705Z,53.44
2023-05-08T08:27:18.387Z,53.50
2023-05-08T08:32:20.075Z,51.55
2023-05-08T08:37:22.179Z,51.36
2023-05-08T08:42:24.234Z,51.73
2023-05-08T08:47:29.915Z,52.25
2023-05-08T08:52:54.527Z,52.56
2023-05-08T08:58:26.708Z,51.92
2023-05-08T09:03:28.620Z,52.00
2023-05-08T09:08:30.887Z,51.49
2023-05-08T09:13:32.653Z,51.96
2023-05-08T09:18:34.378Z,51.97
2023-05-08T09:23:36.737Z,50.62
2023-05-08T09:28:38.500Z,49.57
2023-05-08T09:33:44.753Z,48.78
2023-05-08T09:38:46.497Z,49.90
2023-05-08T09:44:01.621Z,48.46
2023-05-08T09:49:04.477Z,49.65
2023-05-08T09:54:17.897Z,49.47
2023-05-08T09:59:27.982Z,48.14
2023-05-08T10:04:34.222Z,49.80
2023-05-08T10:09:49.678Z,48.06
2023-05-08T10:14:52.394Z,47.57
2023-05-08T10:20:00.068Z,47.34
2023-05-08T10:25:06.626Z,47.28
2023-05-08T10:30:10.000Z,45.55
2023-05-08T10:35:12.437Z,45.19
2023-05-08T10:40:18.711Z,44.76
2023-05-08T10:45:20.734Z,45.05
2023-05-08T10:50:33.715Z,44.58
2023-05-08T10:55:41.357Z,43.86
2023-05-08T11:01:09.414Z,42.04
2023-05-08T11:06:13.619Z,41.24
2023-05-08T11:11:24.720Z,41.11
2023-05-08T11:16:54.800Z,39.87
2023-05-08T11:22:23.916Z,41.93
2023-05-08T11:27:34.999Z,41.91
2023-05-08T11:32:56.116Z,41.99
2023-05-08T11:38:17.255Z,43.08
2023-05-08T11:43:29.311Z,43.10
2023-05-08T11:48:32.800Z,43.92
2023-05-08T11:53:36.505Z,44.09
2023-05-08T11:58:40.745Z,43.64
2023-05-08T12:04:02.152Z,44.33
2023-05-08T12:09:13.127Z,42.52
2023-05-08T12:14:18.254Z,41.38
2023-05-08T12:19:20.570Z,40.88
2023-05-08T12:24:23.733Z,43.07
2023-05-08T12:29:28.696Z,43.43
2023-05-08T12:34:30.403Z,43.28
2023-05-08T12:39:37.523Z,43.23
2023-05-08T12:44:39.327Z,43.65
2023-05-08T12:49:41.055Z,43.90
2023-05-08T12:54:49.513Z,42.95
2023-05-08T12:59:51.369Z,43.10
2023-05-08T13:04:56.569Z,42.58
2023-05-08T13:10:05.514Z,41.35
2023-05-08T13:15:08.233Z,41.67
2023-05-08T13:20:11.383Z,41.27
2023-05-08T13:25:13.719Z,39.68
2023-05-08T13:30:16.687Z,38.39
2023-05-08T13:35:19.514Z,37.84
2023-05-08T13:40:21.546Z,37.91
2023-05-08T13:45:23.482Z,40.30
2023-05-08T13:50:25.399Z,39.57
2023-05-08T13:55:27.247Z,39.76
2023-05-08T14:00:29.040Z,39.13
2023-05-08T14:05:30.823Z,38.99
2023-05-08T14:10:32.617Z,39.24
2023-05-08T14:15:37.398Z,38.90
2023-05-08T14:20:39.566Z,39.20
2023-05-08T14:25:41.294Z,39.70
2023-05-08T14:30:42.963Z,40.13
2023-05-08T14:35:45.956Z,40.41
2023-05-08T14:40:51.099Z,38.99
2023-05-08T14:45:52.939Z,39.91
2023-05-08T14:50:54.796Z,40.35
2023-05-08T14:55:56.872Z,40.55
2023-05-08T15:00:58.864Z,40.61
2023-05-08T15:06:01.198Z,40.62
2023-05-08T15:11:02.888Z,40.66
2023-05-08T15:16:05.585Z,41.73
2023-05-08T15:21:07.406Z,42.10
2023-05-08T15:26:09.184Z,40.29
2023-05-08T15:31:10.831Z,40.04
2023-05-08T15:36:13.677Z,40.79
2023-05-08T15:41:15.743Z,39.69
2023-05-08T15:46:17.748Z,40.58
2023-05-08T15:51:19.810Z,41.15
2023-05-08T15:56:24.465Z,40.42
2023-05-08T16:01:26.233Z,40.42
2023-05-08T16:06:28.544Z,40.63
2023-05-08T16:11:33.769Z,42.03
2023-05-08T16:16:35.707Z,43.47
2023-05-08T16:21:37.552Z,43.17
2023-05-08T16:26:39.243Z,42.97
2023-05-08T16:31:40.938Z,42.16
2023-05-08T16:36:42.674Z,43.09
2023-05-08T16:41:44.555Z,44.15
2023-05-08T16:46:54.282Z,44.20
2023-05-08T16:51:56.034Z,44.33
2023-05-08T16:56:58.071Z,44.18
2023-05-08T17:01:59.963Z,45.29
2023-05-08T17:07:01.822Z,46.32
2023-05-08T17:12:03.812Z,47.00
2023-05-08T17:17:06.269Z,47.50
2023-05-08T17:22:08.011Z,47.26
2023-05-08T17:27:09.909Z,47.35
2023-05-08T17:32:11.802Z,47.54
2023-05-08T17:37:13.749Z,46.15
2023-05-08T17:42:15.957Z,46.46
2023-05-08T17:47:17.974Z,47.38
2023-05-08T17:52:19.649Z,47.66
2023-05-08T17:57:21.444Z,48.44
2023-05-08T18:02:23.224Z,49.20
2023-05-08T18:07:25.315Z,50.17
2023-05-08T18:12:27.017Z,51.12
2023-05-08T18:17:29.794Z,51.76
2023-05-08T18:22:31.610Z,52.36
2023-05-08T18:27:36.269Z,53.03
2023-05-08T18:32:37.968Z,53.85
2023-05-08T18:37:39.699Z,54.80
2023-05-08T18:42:41.393Z,55.85
2023-05-08T18:47:43.132Z,57.05
2023-05-08T18:52:45.071Z,57.52
2023-05-08T18:57:46.785Z,58.39
2023-05-08T19:02:48.526Z,59.21
2023-05-08T19:07:50.480Z,60.11
2023-05-08T19:12:52.196Z,60.84
2023-05-08T19:17:54.027Z,60.93
2023-05-08T19:22:55.784Z,61.69
2023-05-08T19:27:58.739Z,61.80
2023-05-08T19:33:00.413Z,61.90
2023-05-08T19:38:02.134Z,62.25
2023-05-08T19:43:04.195Z,62.96
2023-05-08T19:48:10.562Z,63.30
2023-05-08T19:53:17.980Z,64.14
2023-05-08T19:58:19.712Z,64.43
2023-05-08T20:03:21.528Z,64.74
2023-05-08T20:08:23.517Z,65.86
2023-05-08T20:13:25.435Z,66.10
2023-05-08T20:18:27.269Z,66.66
2023-05-08T20:23:29.029Z,67.64
2023-05-08T20:28:31.129Z,67.76
2023-05-08T20:33:32.854Z,68.21
2023-05-08T20:38:36.550Z,69.32
2023-05-08T20:43:38.580Z,69.81
2023-05-08T20:48:40.395Z,70.01
2023-05-08T20:53:42.141Z,70.39
2023-05-08T20:58:43.806Z,70.64
2023-05-08T21:03:45.551Z,70.98
2023-05-08T21:08:48.231Z,71.45
2023-05-08T21:13:55.434Z,71.90
2023-05-08T21:18:58.327Z,72.02
2023-05-08T21:24:00.379Z,72.48
2023-05-08T21:29:04.283Z,72.55
2023-05-08T21:34:07.293Z,72.85
2023-05-08T21:39:10.818Z,73.56
2023-05-08T21:44:15.718Z,74.40
2023-05-08T21:49:19.764Z,74.37
2023-05-08T21:54:24.172Z,74.67
2023-05-08T21:59:26.261Z,74.80
2023-05-08T22:04:27.971Z,74.86
2023-05-08T22:09:29.724Z,75.57
2023-05-08T22:14:31.454Z,75.69
2023-05-08T22:19:33.270Z,75.77
2023-05-08T22:24:34.985Z,76.13
2023-05-08T22:29:36.629Z,75.76
2023-05-08T22:34:38.642Z,76.05
2023-05-08T22:39:40.408Z,76.18
2023-05-08T22:44:43.527Z,76.59
2023-05-08T22:49:45.212Z,76.48
2023-05-08T22:54:47.059Z,76.51
2023-05-08T22:59:48.907Z,76.67
2023-05-08T23:04:51.051Z,76.91
2023-05-08T23:09:53.830Z,77.01
2023-05-08T23:14:57.992Z,77.15
2023-05-08T23:19:59.781Z,77.46
2023-05-08T23:25:01.509Z,77.18
2023-05-08T23:30:03.634Z,77.09
2023-05-08T23:35:11.638Z,77.36
2023-05-08T23:40:14.366Z,77.31
2023-05-08T23:45:16.542Z,77.08
2023-05-08T23:50:20.906Z,76.94
2023-05-08T23:55:22.637Z,77.08
